DLH872 EDDF-ENBR
Flight info
| Callsign | DLH872 |
|---|---|
| Flight time | 1h 45m |
| Altitude | 24000 |
| Route | MARUN3W/25C MARUN Y152 ARPEG/N0436F360 Z850 ABILU DCT ATPAQ DCT DOROR DCT MITSI DCT BADAB |
| Aircraft | A320/M-SDE2E3FGIJ1LORWXYZ/HB1 |
Departure
| Time | 2026-05-06 16:28 |
|---|---|
| Airport | Frankfurt Main Airport (EDDF) |
Arrival
| Time | 2026-05-06 18:13 |
|---|---|
| Airport | Bergen Airport, Flesland (ENBR) |
| Time | Latitude | Longitude | Altitude | Speed | Heading |
|---|---|---|---|---|---|
| 2026-05-06 16:05 | 50.04999 | 8.59216 | 362 ft | 0 kts | 160° |
| 2026-05-06 16:18 | 50.05000 | 8.59215 | 362 ft | 1 kts | 160° |
| 2026-05-06 16:19 | 50.05022 | 8.59202 | 361 ft | 4 kts | 160° |
| 2026-05-06 16:19 | 50.05047 | 8.59188 | 363 ft | 4 kts | 160° |
| 2026-05-06 16:19 | 50.05071 | 8.59175 | 363 ft | 2 kts | 159° |
| 2026-05-06 16:19 | 50.05089 | 8.59169 | 360 ft | 4 kts | 226° |
| 2026-05-06 16:20 | 50.05100 | 8.59202 | 361 ft | 3 kts | 250° |
| 2026-05-06 16:20 | 50.05104 | 8.59221 | 363 ft | 0 kts | 250° |
| 2026-05-06 16:22 | 50.05101 | 8.59207 | 360 ft | 4 kts | 250° |
| 2026-05-06 16:22 | 50.05088 | 8.59154 | 365 ft | 7 kts | 249° |
| 2026-05-06 16:22 | 50.05067 | 8.59068 | 359 ft | 10 kts | 249° |
| 2026-05-06 16:23 | 50.05038 | 8.58948 | 362 ft | 14 kts | 252° |
| 2026-05-06 16:23 | 50.05000 | 8.58787 | 363 ft | 16 kts | 250° |
| 2026-05-06 16:23 | 50.04947 | 8.58663 | 364 ft | 13 kts | 197° |
| 2026-05-06 16:23 | 50.04885 | 8.58686 | 365 ft | 6 kts | 160° |
| 2026-05-06 16:24 | 50.04850 | 8.58706 | 365 ft | 8 kts | 160° |
| 2026-05-06 16:24 | 50.04805 | 8.58731 | 365 ft | 6 kts | 160° |
| 2026-05-06 16:24 | 50.04755 | 8.58760 | 369 ft | 9 kts | 160° |
| 2026-05-06 16:24 | 50.04679 | 8.58767 | 370 ft | 13 kts | 186° |
| 2026-05-06 16:25 | 50.04579 | 8.58709 | 371 ft | 18 kts | 221° |
| 2026-05-06 16:25 | 50.04480 | 8.58566 | 370 ft | 15 kts | 246° |
| 2026-05-06 16:25 | 50.04438 | 8.58387 | 372 ft | 21 kts | 250° |
| 2026-05-06 16:25 | 50.04429 | 8.58346 | 369 ft | 0 kts | 250° |
| 2026-05-06 16:27 | 50.04391 | 8.58188 | 369 ft | 47 kts | 250° |
| 2026-05-06 16:27 | 50.04197 | 8.57377 | 371 ft | 108 kts | 250° |
| 2026-05-06 16:27 | 50.03875 | 8.56029 | 363 ft | 156 kts | 249° |
| 2026-05-06 16:27 | 50.03485 | 8.54427 | 924 ft | 157 kts | 253° |
| 2026-05-06 16:28 | 50.03105 | 8.52832 | 1667 ft | 159 kts | 252° |
| 2026-05-06 16:28 | 50.02693 | 8.51091 | 2061 ft | 182 kts | 250° |
| 2026-05-06 16:28 | 50.01964 | 8.49373 | 2522 ft | 201 kts | 223° |
| 2026-05-06 16:28 | 50.00769 | 8.48250 | 3236 ft | 203 kts | 202° |
| 2026-05-06 16:29 | 49.99372 | 8.47879 | 3947 ft | 204 kts | 186° |
| 2026-05-06 16:29 | 49.97962 | 8.47702 | 4508 ft | 206 kts | 190° |
| 2026-05-06 16:29 | 49.96545 | 8.47364 | 5167 ft | 204 kts | 192° |
| 2026-05-06 16:29 | 49.95143 | 8.46800 | 5544 ft | 219 kts | 199° |
| 2026-05-06 16:30 | 49.93617 | 8.46045 | 6054 ft | 235 kts | 199° |
| 2026-05-06 16:30 | 49.92585 | 8.45479 | 6519 ft | 240 kts | 208° |
| 2026-05-06 16:30 | 49.90990 | 8.43092 | 7515 ft | 245 kts | 244° |
| 2026-05-06 16:30 | 49.90600 | 8.40518 | 8304 ft | 250 kts | 270° |
| 2026-05-06 16:31 | 49.91046 | 8.37892 | 9091 ft | 260 kts | 296° |
| 2026-05-06 16:31 | 49.92309 | 8.35863 | 9913 ft | 267 kts | 329° |
| 2026-05-06 16:31 | 49.94043 | 8.34776 | 10458 ft | 282 kts | 336° |
| 2026-05-06 16:31 | 49.95942 | 8.33568 | 10745 ft | 306 kts | 334° |
| 2026-05-06 16:32 | 49.97982 | 8.32216 | 11008 ft | 329 kts | 334° |
| 2026-05-06 16:32 | 50.00118 | 8.30790 | 11580 ft | 338 kts | 334° |
| 2026-05-06 16:32 | 50.02315 | 8.29487 | 12295 ft | 345 kts | 342° |
| 2026-05-06 16:32 | 50.04701 | 8.28892 | 13043 ft | 351 kts | 356° |
| 2026-05-06 16:33 | 50.07160 | 8.29155 | 13745 ft | 357 kts | 10° |
| 2026-05-06 16:33 | 50.09566 | 8.30240 | 14349 ft | 363 kts | 18° |
| 2026-05-06 16:33 | 50.11971 | 8.31517 | 14987 ft | 366 kts | 18° |
| 2026-05-06 16:34 | 50.16847 | 8.34083 | 16185 ft | 374 kts | 18° |
| 2026-05-06 16:34 | 50.19326 | 8.35380 | 16812 ft | 377 kts | 18° |
| 2026-05-06 16:34 | 50.21825 | 8.36686 | 17411 ft | 381 kts | 18° |
| 2026-05-06 16:34 | 50.24317 | 8.37990 | 18012 ft | 384 kts | 18° |
| 2026-05-06 16:35 | 50.26868 | 8.39328 | 18541 ft | 388 kts | 18° |
| 2026-05-06 16:35 | 50.29437 | 8.40677 | 19066 ft | 391 kts | 18° |
| 2026-05-06 16:35 | 50.32027 | 8.42061 | 19600 ft | 393 kts | 18° |
| 2026-05-06 16:35 | 50.34626 | 8.43475 | 20124 ft | 396 kts | 18° |
| 2026-05-06 16:36 | 50.37238 | 8.44914 | 20648 ft | 399 kts | 18° |
| 2026-05-06 16:36 | 50.39869 | 8.46366 | 21161 ft | 402 kts | 18° |
| 2026-05-06 16:36 | 50.42480 | 8.47804 | 21698 ft | 404 kts | 18° |
| 2026-05-06 16:36 | 50.45146 | 8.49266 | 22219 ft | 407 kts | 18° |
| 2026-05-06 16:37 | 50.47834 | 8.50729 | 22719 ft | 410 kts | 17° |
| 2026-05-06 16:37 | 50.50564 | 8.52127 | 23207 ft | 412 kts | 15° |
| 2026-05-06 16:37 | 50.53318 | 8.53452 | 23624 ft | 415 kts | 15° |
| 2026-05-06 16:37 | 50.56098 | 8.54747 | 23773 ft | 415 kts | 14° |
| 2026-05-06 16:38 | 50.58800 | 8.55999 | 23801 ft | 405 kts | 14° |
| 2026-05-06 16:38 | 50.61506 | 8.57262 | 23806 ft | 408 kts | 14° |
| 2026-05-06 16:38 | 50.64279 | 8.58569 | 23917 ft | 420 kts | 14° |
| 2026-05-06 16:38 | 50.67118 | 8.59926 | 24040 ft | 431 kts | 14° |
| 2026-05-06 16:39 | 50.70020 | 8.61323 | 24163 ft | 441 kts | 14° |
| 2026-05-06 16:39 | 50.72992 | 8.62758 | 24287 ft | 450 kts | 14° |
| 2026-05-06 16:39 | 50.76061 | 8.63814 | 24406 ft | 454 kts | 2° |
| 2026-05-06 16:39 | 50.78162 | 8.63911 | 24489 ft | 456 kts | 354° |
| 2026-05-06 16:40 | 50.82289 | 8.62623 | 24699 ft | 456 kts | 336° |
| 2026-05-06 16:40 | 50.85109 | 8.60376 | 25018 ft | 451 kts | 322° |
| 2026-05-06 16:40 | 50.87484 | 8.57192 | 25383 ft | 445 kts | 309° |
| 2026-05-06 16:40 | 50.89500 | 8.53480 | 25760 ft | 444 kts | 307° |
| 2026-05-06 16:41 | 50.91476 | 8.49782 | 26142 ft | 444 kts | 307° |
| 2026-05-06 16:41 | 50.93472 | 8.46037 | 26591 ft | 442 kts | 306° |
| 2026-05-06 16:41 | 50.95455 | 8.42315 | 27034 ft | 441 kts | 306° |
| 2026-05-06 16:41 | 50.97418 | 8.38629 | 27455 ft | 441 kts | 306° |
| 2026-05-06 16:42 | 50.99399 | 8.34901 | 27877 ft | 440 kts | 307° |
| 2026-05-06 16:42 | 51.01553 | 8.31415 | 28282 ft | 445 kts | 315° |
| 2026-05-06 16:42 | 51.04060 | 8.28503 | 28677 ft | 449 kts | 326° |
| 2026-05-06 16:42 | 51.05867 | 8.26878 | 28975 ft | 450 kts | 328° |
| 2026-05-06 16:43 | 51.09498 | 8.23665 | 29527 ft | 449 kts | 327° |
| 2026-05-06 16:43 | 51.12225 | 8.21241 | 29953 ft | 449 kts | 327° |
| 2026-05-06 16:43 | 51.14066 | 8.19604 | 30190 ft | 448 kts | 327° |
| 2026-05-06 16:43 | 51.16763 | 8.17201 | 30527 ft | 448 kts | 327° |
| 2026-05-06 16:44 | 51.19486 | 8.14767 | 30899 ft | 447 kts | 327° |
| 2026-05-06 16:44 | 51.22201 | 8.12334 | 31258 ft | 446 kts | 327° |
| 2026-05-06 16:44 | 51.24905 | 8.09906 | 31655 ft | 445 kts | 329° |
| 2026-05-06 16:44 | 51.27564 | 8.07520 | 32092 ft | 442 kts | 328° |
| 2026-05-06 16:45 | 51.31156 | 8.04294 | 32605 ft | 441 kts | 328° |
| 2026-05-06 16:45 | 51.32932 | 8.02696 | 32857 ft | 441 kts | 328° |
| 2026-05-06 16:45 | 51.35608 | 8.00289 | 33216 ft | 440 kts | 328° |
| 2026-05-06 16:45 | 51.38293 | 7.97935 | 33560 ft | 441 kts | 332° |
| 2026-05-06 16:46 | 51.41112 | 7.96111 | 33883 ft | 444 kts | 340° |
| 2026-05-06 16:46 | 51.44132 | 7.94926 | 34143 ft | 447 kts | 348° |
| 2026-05-06 16:46 | 51.47235 | 7.94335 | 34376 ft | 449 kts | 352° |
| 2026-05-06 16:46 | 51.50359 | 7.93803 | 34618 ft | 449 kts | 351° |
| 2026-05-06 16:47 | 51.53439 | 7.93272 | 34807 ft | 450 kts | 351° |
| 2026-05-06 16:47 | 51.59689 | 7.92187 | 34857 ft | 450 kts | 351° |
| 2026-05-06 16:48 | 51.65894 | 7.91101 | 34857 ft | 450 kts | 351° |
| 2026-05-06 16:48 | 51.72131 | 7.90005 | 34855 ft | 450 kts | 351° |
| 2026-05-06 16:49 | 51.78331 | 7.88917 | 34858 ft | 450 kts | 351° |
| 2026-05-06 16:49 | 51.84569 | 7.87829 | 34855 ft | 450 kts | 351° |
| 2026-05-06 16:50 | 51.90818 | 7.86729 | 34853 ft | 450 kts | 351° |
| 2026-05-06 16:50 | 51.97043 | 7.85620 | 34854 ft | 450 kts | 351° |
| 2026-05-06 16:51 | 52.03241 | 7.84526 | 34906 ft | 450 kts | 352° |
| 2026-05-06 16:51 | 52.09472 | 7.83425 | 34915 ft | 449 kts | 352° |
| 2026-05-06 16:52 | 52.15684 | 7.82315 | 34917 ft | 448 kts | 352° |
| 2026-05-06 16:52 | 52.21858 | 7.81215 | 34909 ft | 448 kts | 352° |
| 2026-05-06 16:53 | 52.28052 | 7.80102 | 34912 ft | 447 kts | 352° |
| 2026-05-06 16:53 | 52.34245 | 7.78984 | 34906 ft | 447 kts | 352° |
| 2026-05-06 16:54 | 52.40393 | 7.77890 | 34896 ft | 446 kts | 352° |
| 2026-05-06 16:54 | 52.46580 | 7.76782 | 34888 ft | 446 kts | 352° |
| 2026-05-06 16:55 | 52.52718 | 7.75660 | 34901 ft | 445 kts | 351° |
| 2026-05-06 16:55 | 52.58886 | 7.74415 | 34890 ft | 444 kts | 350° |
| 2026-05-06 16:56 | 52.65006 | 7.72958 | 34895 ft | 444 kts | 349° |
| 2026-05-06 16:56 | 52.71089 | 7.71494 | 34882 ft | 443 kts | 349° |
| 2026-05-06 16:57 | 52.77208 | 7.70054 | 34886 ft | 443 kts | 349° |
| 2026-05-06 16:57 | 52.83325 | 7.68637 | 34892 ft | 443 kts | 349° |
| 2026-05-06 16:58 | 52.89400 | 7.67214 | 34897 ft | 443 kts | 349° |
| 2026-05-06 16:58 | 52.95474 | 7.65798 | 34890 ft | 442 kts | 349° |
| 2026-05-06 16:59 | 53.01569 | 7.64376 | 34903 ft | 442 kts | 349° |
| 2026-05-06 16:59 | 53.07671 | 7.62937 | 34903 ft | 441 kts | 349° |
| 2026-05-06 17:00 | 53.13718 | 7.61508 | 34907 ft | 441 kts | 349° |
| 2026-05-06 17:00 | 53.19778 | 7.60075 | 34904 ft | 441 kts | 349° |
| 2026-05-06 17:01 | 53.25867 | 7.58640 | 34912 ft | 441 kts | 349° |
| 2026-05-06 17:01 | 53.31950 | 7.57201 | 34917 ft | 441 kts | 349° |
| 2026-05-06 17:02 | 53.37996 | 7.55750 | 34916 ft | 441 kts | 349° |
| 2026-05-06 17:02 | 53.44076 | 7.54288 | 34916 ft | 441 kts | 349° |
| 2026-05-06 17:03 | 53.50163 | 7.52833 | 34923 ft | 441 kts | 349° |
| 2026-05-06 17:03 | 53.56203 | 7.51400 | 34935 ft | 441 kts | 349° |
| 2026-05-06 17:04 | 53.62280 | 7.49931 | 34929 ft | 441 kts | 349° |
| 2026-05-06 17:04 | 53.68363 | 7.48443 | 34931 ft | 441 kts | 349° |
| 2026-05-06 17:05 | 53.74409 | 7.46978 | 34933 ft | 440 kts | 349° |
| 2026-05-06 17:05 | 53.80486 | 7.45516 | 34933 ft | 441 kts | 349° |
| 2026-05-06 17:06 | 53.86566 | 7.44036 | 34932 ft | 442 kts | 349° |
| 2026-05-06 17:06 | 53.89613 | 7.43284 | 35098 ft | 442 kts | 348° |
| 2026-05-06 17:06 | 53.92665 | 7.42526 | 35346 ft | 442 kts | 349° |
| 2026-05-06 17:06 | 53.95675 | 7.41781 | 35587 ft | 442 kts | 349° |
| 2026-05-06 17:07 | 53.98723 | 7.41030 | 35824 ft | 443 kts | 349° |
| 2026-05-06 17:07 | 54.04855 | 7.39521 | 35932 ft | 445 kts | 349° |
| 2026-05-06 17:08 | 54.10992 | 7.38011 | 35933 ft | 445 kts | 348° |
| 2026-05-06 17:08 | 54.17099 | 7.36507 | 35936 ft | 445 kts | 348° |
| 2026-05-06 17:09 | 54.23250 | 7.34979 | 35940 ft | 445 kts | 348° |
| 2026-05-06 17:09 | 54.29350 | 7.33448 | 35952 ft | 445 kts | 348° |
| 2026-05-06 17:10 | 54.35504 | 7.31907 | 35949 ft | 445 kts | 348° |
| 2026-05-06 17:10 | 54.41607 | 7.30388 | 35949 ft | 445 kts | 348° |
| 2026-05-06 17:11 | 54.47756 | 7.28839 | 35958 ft | 446 kts | 348° |
| 2026-05-06 17:11 | 54.53864 | 7.27291 | 35971 ft | 446 kts | 348° |
| 2026-05-06 17:12 | 54.60020 | 7.25736 | 35968 ft | 446 kts | 348° |
| 2026-05-06 17:12 | 54.66160 | 7.24195 | 35970 ft | 446 kts | 348° |
| 2026-05-06 17:13 | 54.72269 | 7.22641 | 35967 ft | 446 kts | 348° |
| 2026-05-06 17:13 | 54.78406 | 7.21052 | 35968 ft | 446 kts | 348° |
| 2026-05-06 17:14 | 54.84546 | 7.19465 | 35976 ft | 446 kts | 348° |
| 2026-05-06 17:14 | 54.90654 | 7.17902 | 35981 ft | 446 kts | 348° |
| 2026-05-06 17:15 | 54.96795 | 7.16329 | 35978 ft | 446 kts | 348° |
| 2026-05-06 17:15 | 55.02940 | 7.14661 | 35977 ft | 445 kts | 346° |
| 2026-05-06 17:16 | 55.08989 | 7.12647 | 36004 ft | 444 kts | 345° |
| 2026-05-06 17:16 | 55.15061 | 7.10497 | 35998 ft | 444 kts | 345° |
| 2026-05-06 17:17 | 55.21131 | 7.08421 | 35976 ft | 443 kts | 345° |
| 2026-05-06 17:17 | 55.27198 | 7.06409 | 35999 ft | 443 kts | 345° |
| 2026-05-06 17:18 | 55.33226 | 7.04397 | 36023 ft | 443 kts | 345° |
| 2026-05-06 17:18 | 55.39289 | 7.02343 | 36011 ft | 443 kts | 345° |
| 2026-05-06 17:19 | 55.45360 | 7.00280 | 36009 ft | 443 kts | 345° |
| 2026-05-06 17:19 | 55.51389 | 6.98229 | 35998 ft | 443 kts | 345° |
| 2026-05-06 17:20 | 55.57455 | 6.96169 | 35988 ft | 443 kts | 345° |
| 2026-05-06 17:20 | 55.63485 | 6.94100 | 36014 ft | 443 kts | 344° |
| 2026-05-06 17:21 | 55.69552 | 6.92014 | 36007 ft | 444 kts | 344° |
| 2026-05-06 17:21 | 55.75634 | 6.89919 | 36003 ft | 444 kts | 344° |
| 2026-05-06 17:22 | 55.81673 | 6.87826 | 36002 ft | 444 kts | 344° |
| 2026-05-06 17:22 | 55.87738 | 6.85732 | 36000 ft | 444 kts | 344° |
| 2026-05-06 17:23 | 55.93765 | 6.83644 | 36007 ft | 444 kts | 344° |
| 2026-05-06 17:23 | 55.99832 | 6.81521 | 36005 ft | 443 kts | 344° |
| 2026-05-06 17:24 | 56.05894 | 6.79394 | 36018 ft | 443 kts | 344° |
| 2026-05-06 17:24 | 56.11966 | 6.77268 | 36035 ft | 443 kts | 344° |
| 2026-05-06 17:25 | 56.17997 | 6.75153 | 36033 ft | 443 kts | 343° |
| 2026-05-06 17:25 | 56.24055 | 6.73002 | 36029 ft | 443 kts | 343° |
| 2026-05-06 17:26 | 56.30123 | 6.70850 | 36014 ft | 446 kts | 344° |
| 2026-05-06 17:26 | 56.35249 | 6.69026 | 36024 ft | 455 kts | 344° |
| 2026-05-06 17:27 | 56.42584 | 6.66396 | 36020 ft | 468 kts | 344° |
| 2026-05-06 17:27 | 56.49032 | 6.64095 | 36019 ft | 474 kts | 344° |
| 2026-05-06 17:28 | 56.55478 | 6.61801 | 36021 ft | 474 kts | 344° |
| 2026-05-06 17:28 | 56.61966 | 6.59471 | 36017 ft | 474 kts | 343° |
| 2026-05-06 17:29 | 56.68456 | 6.57108 | 36049 ft | 474 kts | 343° |
| 2026-05-06 17:29 | 56.74888 | 6.54765 | 36039 ft | 474 kts | 343° |
| 2026-05-06 17:30 | 56.80962 | 6.52551 | 36039 ft | 474 kts | 343° |
| 2026-05-06 17:30 | 56.87448 | 6.50193 | 36035 ft | 474 kts | 343° |
| 2026-05-06 17:31 | 56.93879 | 6.47833 | 36033 ft | 474 kts | 343° |
| 2026-05-06 17:31 | 57.00317 | 6.45307 | 36038 ft | 468 kts | 338° |
| 2026-05-06 17:32 | 57.06554 | 6.41821 | 36031 ft | 468 kts | 338° |
| 2026-05-06 17:32 | 57.12734 | 6.38274 | 36036 ft | 467 kts | 337° |
| 2026-05-06 17:33 | 57.18932 | 6.34627 | 35820 ft | 467 kts | 337° |
| 2026-05-06 17:33 | 57.22027 | 6.32790 | 35450 ft | 466 kts | 337° |
| 2026-05-06 17:33 | 57.25124 | 6.30955 | 35098 ft | 466 kts | 337° |
| 2026-05-06 17:33 | 57.28217 | 6.29131 | 34744 ft | 466 kts | 337° |
| 2026-05-06 17:34 | 57.31310 | 6.27312 | 34392 ft | 466 kts | 337° |
| 2026-05-06 17:34 | 57.34362 | 6.25518 | 34045 ft | 466 kts | 336° |
| 2026-05-06 17:34 | 57.37456 | 6.23694 | 33629 ft | 466 kts | 336° |
| 2026-05-06 17:34 | 57.40549 | 6.21860 | 33226 ft | 466 kts | 336° |
| 2026-05-06 17:35 | 57.43642 | 6.20025 | 32817 ft | 466 kts | 336° |
| 2026-05-06 17:35 | 57.46744 | 6.18181 | 32405 ft | 466 kts | 336° |
| 2026-05-06 17:35 | 57.49839 | 6.16336 | 32005 ft | 467 kts | 336° |
| 2026-05-06 17:36 | 57.55984 | 6.12660 | 31268 ft | 467 kts | 336° |
| 2026-05-06 17:36 | 57.59080 | 6.10808 | 30878 ft | 467 kts | 336° |
| 2026-05-06 17:36 | 57.62187 | 6.08951 | 30508 ft | 467 kts | 336° |
| 2026-05-06 17:36 | 57.65262 | 6.07111 | 30140 ft | 467 kts | 336° |
| 2026-05-06 17:37 | 57.68364 | 6.05248 | 29702 ft | 467 kts | 336° |
| 2026-05-06 17:37 | 57.71463 | 6.03371 | 29289 ft | 467 kts | 337° |
| 2026-05-06 17:37 | 57.74555 | 6.01496 | 28862 ft | 466 kts | 337° |
| 2026-05-06 17:37 | 57.77644 | 5.99621 | 28439 ft | 467 kts | 337° |
| 2026-05-06 17:38 | 57.80698 | 5.97773 | 28057 ft | 467 kts | 336° |
| 2026-05-06 17:38 | 57.83793 | 5.95895 | 27649 ft | 467 kts | 336° |
| 2026-05-06 17:38 | 57.86884 | 5.94011 | 27246 ft | 467 kts | 336° |
| 2026-05-06 17:38 | 57.89983 | 5.92123 | 26843 ft | 468 kts | 337° |
| 2026-05-06 17:39 | 57.93097 | 5.90224 | 26445 ft | 469 kts | 337° |
| 2026-05-06 17:39 | 57.96205 | 5.88327 | 26057 ft | 469 kts | 337° |
| 2026-05-06 17:39 | 57.99287 | 5.86443 | 25677 ft | 470 kts | 337° |
| 2026-05-06 17:39 | 58.02400 | 5.84536 | 25297 ft | 468 kts | 337° |
| 2026-05-06 17:40 | 58.05490 | 5.82633 | 24928 ft | 465 kts | 337° |
| 2026-05-06 17:40 | 58.08564 | 5.80729 | 24583 ft | 463 kts | 336° |
| 2026-05-06 17:40 | 58.11588 | 5.78853 | 24227 ft | 460 kts | 336° |
| 2026-05-06 17:40 | 58.14623 | 5.76975 | 23871 ft | 458 kts | 336° |
| 2026-05-06 17:41 | 58.17653 | 5.75102 | 23499 ft | 455 kts | 337° |
| 2026-05-06 17:41 | 58.20665 | 5.73236 | 23070 ft | 453 kts | 337° |
| 2026-05-06 17:41 | 58.23651 | 5.71381 | 22649 ft | 450 kts | 337° |
| 2026-05-06 17:41 | 58.26621 | 5.69533 | 22237 ft | 447 kts | 337° |
| 2026-05-06 17:42 | 58.29570 | 5.67693 | 21835 ft | 444 kts | 337° |
| 2026-05-06 17:42 | 58.32465 | 5.65883 | 21439 ft | 442 kts | 337° |
| 2026-05-06 17:42 | 58.35389 | 5.64055 | 21060 ft | 439 kts | 337° |
| 2026-05-06 17:42 | 58.38280 | 5.62246 | 20676 ft | 435 kts | 336° |
| 2026-05-06 17:43 | 58.41140 | 5.60445 | 20291 ft | 432 kts | 336° |
| 2026-05-06 17:43 | 58.43987 | 5.58648 | 19906 ft | 429 kts | 336° |
| 2026-05-06 17:43 | 58.46790 | 5.56875 | 19529 ft | 426 kts | 336° |
| 2026-05-06 17:43 | 58.49600 | 5.55095 | 19151 ft | 424 kts | 337° |
| 2026-05-06 17:44 | 58.52394 | 5.53326 | 18786 ft | 421 kts | 337° |
| 2026-05-06 17:44 | 58.55172 | 5.51569 | 18424 ft | 419 kts | 337° |
| 2026-05-06 17:44 | 58.57941 | 5.49816 | 18075 ft | 416 kts | 337° |
| 2026-05-06 17:44 | 58.60650 | 5.48096 | 18040 ft | 415 kts | 337° |
| 2026-05-06 17:45 | 58.63402 | 5.46343 | 18055 ft | 416 kts | 337° |
| 2026-05-06 17:45 | 58.66152 | 5.44588 | 18055 ft | 416 kts | 337° |
| 2026-05-06 17:45 | 58.68903 | 5.42832 | 18054 ft | 416 kts | 337° |
| 2026-05-06 17:45 | 58.71654 | 5.41073 | 18054 ft | 416 kts | 337° |
| 2026-05-06 17:46 | 58.74408 | 5.39305 | 18054 ft | 416 kts | 337° |
| 2026-05-06 17:46 | 58.77120 | 5.37561 | 18054 ft | 416 kts | 337° |
| 2026-05-06 17:46 | 58.79875 | 5.35783 | 18054 ft | 416 kts | 337° |
| 2026-05-06 17:46 | 58.82628 | 5.34006 | 18054 ft | 416 kts | 337° |
| 2026-05-06 17:47 | 58.85344 | 5.32254 | 18054 ft | 416 kts | 337° |
| 2026-05-06 17:47 | 58.88094 | 5.30479 | 18059 ft | 416 kts | 337° |
| 2026-05-06 17:47 | 58.90838 | 5.28702 | 18060 ft | 416 kts | 336° |
| 2026-05-06 17:47 | 58.93591 | 5.26915 | 18080 ft | 416 kts | 336° |
| 2026-05-06 17:48 | 58.96332 | 5.25139 | 18060 ft | 415 kts | 336° |
| 2026-05-06 17:48 | 58.99038 | 5.23384 | 18056 ft | 415 kts | 336° |
| 2026-05-06 17:48 | 59.01781 | 5.21595 | 18066 ft | 415 kts | 336° |
| 2026-05-06 17:48 | 59.04521 | 5.19801 | 18063 ft | 415 kts | 336° |
| 2026-05-06 17:49 | 59.07261 | 5.18006 | 18059 ft | 415 kts | 336° |
| 2026-05-06 17:49 | 59.09997 | 5.16214 | 18063 ft | 415 kts | 336° |
| 2026-05-06 17:49 | 59.12700 | 5.14441 | 18059 ft | 415 kts | 336° |
| 2026-05-06 17:49 | 59.15443 | 5.12645 | 18062 ft | 415 kts | 336° |
| 2026-05-06 17:50 | 59.18183 | 5.10852 | 18055 ft | 414 kts | 336° |
| 2026-05-06 17:50 | 59.20923 | 5.09054 | 18055 ft | 414 kts | 335° |
| 2026-05-06 17:50 | 59.22732 | 5.07861 | 18084 ft | 414 kts | 335° |
| 2026-05-06 17:50 | 59.26371 | 5.05451 | 18058 ft | 413 kts | 335° |
| 2026-05-06 17:51 | 59.29093 | 5.03640 | 18054 ft | 412 kts | 335° |
| 2026-05-06 17:51 | 59.31777 | 5.01848 | 18058 ft | 412 kts | 335° |
| 2026-05-06 17:51 | 59.34488 | 5.00032 | 18057 ft | 412 kts | 335° |
| 2026-05-06 17:51 | 59.37204 | 4.98214 | 18057 ft | 412 kts | 335° |
| 2026-05-06 17:52 | 59.40015 | 4.96830 | 18056 ft | 421 kts | 346° |
| 2026-05-06 17:52 | 59.42950 | 4.96304 | 18059 ft | 424 kts | 349° |
| 2026-05-06 17:52 | 59.45889 | 4.95831 | 18059 ft | 424 kts | 349° |
| 2026-05-06 17:52 | 59.48831 | 4.95357 | 18059 ft | 424 kts | 349° |
| 2026-05-06 17:53 | 59.50789 | 4.95041 | 18112 ft | 424 kts | 349° |
| 2026-05-06 17:53 | 59.53730 | 4.94568 | 18050 ft | 422 kts | 349° |
| 2026-05-06 17:53 | 59.56656 | 4.94093 | 18061 ft | 422 kts | 349° |
| 2026-05-06 17:53 | 59.59578 | 4.93616 | 18061 ft | 422 kts | 349° |
| 2026-05-06 17:54 | 59.62509 | 4.93136 | 18062 ft | 422 kts | 349° |
| 2026-05-06 17:54 | 59.65439 | 4.92658 | 18062 ft | 422 kts | 349° |
| 2026-05-06 17:54 | 59.68333 | 4.92185 | 18062 ft | 422 kts | 349° |
| 2026-05-06 17:54 | 59.71262 | 4.91702 | 18062 ft | 422 kts | 349° |
| 2026-05-06 17:55 | 59.74178 | 4.91217 | 17909 ft | 418 kts | 349° |
| 2026-05-06 17:55 | 59.77060 | 4.90742 | 17141 ft | 414 kts | 349° |
| 2026-05-06 17:55 | 59.79912 | 4.90200 | 16439 ft | 408 kts | 347° |
| 2026-05-06 17:55 | 59.82701 | 4.89494 | 15803 ft | 400 kts | 346° |
| 2026-05-06 17:56 | 59.85436 | 4.88684 | 15136 ft | 394 kts | 345° |
| 2026-05-06 17:56 | 59.88129 | 4.87839 | 14478 ft | 389 kts | 346° |
| 2026-05-06 17:56 | 59.90796 | 4.87004 | 13825 ft | 385 kts | 346° |
| 2026-05-06 17:56 | 59.93430 | 4.86198 | 13095 ft | 381 kts | 347° |
| 2026-05-06 17:57 | 59.96009 | 4.85437 | 12355 ft | 377 kts | 347° |
| 2026-05-06 17:57 | 59.98596 | 4.84695 | 11642 ft | 373 kts | 348° |
| 2026-05-06 17:57 | 60.01154 | 4.83972 | 10935 ft | 369 kts | 349° |
| 2026-05-06 17:57 | 60.03683 | 4.83253 | 10237 ft | 365 kts | 349° |
| 2026-05-06 17:58 | 60.06195 | 4.82535 | 9499 ft | 362 kts | 350° |
| 2026-05-06 17:58 | 60.08673 | 4.81822 | 8891 ft | 355 kts | 350° |
| 2026-05-06 17:58 | 60.11036 | 4.81146 | 8713 ft | 327 kts | 350° |
| 2026-05-06 17:58 | 60.13192 | 4.80535 | 8556 ft | 298 kts | 349° |
| 2026-05-06 17:59 | 60.15155 | 4.79974 | 8424 ft | 273 kts | 349° |
| 2026-05-06 17:59 | 60.16938 | 4.79461 | 8285 ft | 251 kts | 349° |
| 2026-05-06 17:59 | 60.18624 | 4.78973 | 8133 ft | 240 kts | 349° |
| 2026-05-06 17:59 | 60.20260 | 4.78492 | 7901 ft | 236 kts | 349° |
| 2026-05-06 18:00 | 60.21880 | 4.78012 | 7617 ft | 235 kts | 349° |
| 2026-05-06 18:00 | 60.23499 | 4.77533 | 7323 ft | 234 kts | 349° |
| 2026-05-06 18:00 | 60.25104 | 4.77063 | 7040 ft | 232 kts | 349° |
| 2026-05-06 18:00 | 60.26684 | 4.76604 | 6755 ft | 231 kts | 349° |
| 2026-05-06 18:01 | 60.28279 | 4.76141 | 6457 ft | 231 kts | 349° |
| 2026-05-06 18:01 | 60.29875 | 4.75678 | 6149 ft | 230 kts | 349° |
| 2026-05-06 18:01 | 60.31457 | 4.75216 | 5846 ft | 229 kts | 349° |
| 2026-05-06 18:01 | 60.33032 | 4.74750 | 5554 ft | 228 kts | 349° |
| 2026-05-06 18:02 | 60.34610 | 4.74443 | 5258 ft | 229 kts | 4° |
| 2026-05-06 18:02 | 60.35630 | 4.74999 | 5093 ft | 230 kts | 21° |
| 2026-05-06 18:02 | 60.37519 | 4.77035 | 4997 ft | 232 kts | 27° |
| 2026-05-06 18:02 | 60.38467 | 4.78144 | 5008 ft | 235 kts | 27° |
| 2026-05-06 18:03 | 60.40356 | 4.80354 | 5007 ft | 236 kts | 27° |
| 2026-05-06 18:03 | 60.41783 | 4.82022 | 5007 ft | 236 kts | 27° |
| 2026-05-06 18:03 | 60.43190 | 4.83671 | 5007 ft | 237 kts | 28° |
| 2026-05-06 18:03 | 60.44616 | 4.85343 | 5006 ft | 236 kts | 27° |
| 2026-05-06 18:04 | 60.46042 | 4.87014 | 5008 ft | 236 kts | 27° |
| 2026-05-06 18:04 | 60.47450 | 4.88670 | 5001 ft | 228 kts | 27° |
| 2026-05-06 18:04 | 60.47910 | 4.89214 | 5000 ft | 223 kts | 27° |
| 2026-05-06 18:04 | 60.48340 | 4.89723 | 5001 ft | 220 kts | 28° |
| 2026-05-06 18:05 | 60.49212 | 4.90756 | 5003 ft | 217 kts | 28° |
| 2026-05-06 18:05 | 60.49654 | 4.91279 | 5004 ft | 217 kts | 28° |
| 2026-05-06 18:05 | 60.53848 | 4.96250 | 5007 ft | 216 kts | 28° |
| 2026-05-06 18:05 | 60.55142 | 4.97785 | 5007 ft | 216 kts | 28° |
| 2026-05-06 18:06 | 60.56440 | 4.99329 | 5006 ft | 216 kts | 27° |
| 2026-05-06 18:06 | 60.57735 | 5.00873 | 4927 ft | 214 kts | 28° |
| 2026-05-06 18:06 | 60.58840 | 5.02897 | 4697 ft | 217 kts | 56° |
| 2026-05-06 18:06 | 60.59325 | 5.05784 | 4461 ft | 218 kts | 88° |
| 2026-05-06 18:07 | 60.59022 | 5.08760 | 4198 ft | 217 kts | 120° |
| 2026-05-06 18:07 | 60.58043 | 5.10969 | 3952 ft | 212 kts | 150° |
| 2026-05-06 18:07 | 60.56688 | 5.12110 | 3710 ft | 210 kts | 164° |
| 2026-05-06 18:07 | 60.55284 | 5.12919 | 3466 ft | 209 kts | 169° |
| 2026-05-06 18:08 | 60.53866 | 5.13492 | 3222 ft | 207 kts | 172° |
| 2026-05-06 18:08 | 60.52443 | 5.13990 | 3051 ft | 207 kts | 173° |
| 2026-05-06 18:08 | 60.51043 | 5.14468 | 3001 ft | 206 kts | 173° |
| 2026-05-06 18:08 | 60.49629 | 5.14949 | 3007 ft | 207 kts | 173° |
| 2026-05-06 18:09 | 60.48209 | 5.15433 | 3006 ft | 207 kts | 173° |
| 2026-05-06 18:09 | 60.46785 | 5.15917 | 3009 ft | 205 kts | 173° |
| 2026-05-06 18:09 | 60.45412 | 5.16385 | 2999 ft | 194 kts | 174° |
| 2026-05-06 18:09 | 60.44115 | 5.16826 | 2951 ft | 185 kts | 174° |
| 2026-05-06 18:10 | 60.42868 | 5.17249 | 2792 ft | 179 kts | 174° |
| 2026-05-06 18:10 | 60.41678 | 5.17652 | 2557 ft | 169 kts | 174° |
| 2026-05-06 18:10 | 60.40529 | 5.18040 | 2312 ft | 166 kts | 174° |
| 2026-05-06 18:10 | 60.39398 | 5.18422 | 2076 ft | 164 kts | 174° |
| 2026-05-06 18:11 | 60.38293 | 5.18796 | 1847 ft | 160 kts | 174° |
| 2026-05-06 18:11 | 60.37231 | 5.19156 | 1620 ft | 147 kts | 175° |
| 2026-05-06 18:11 | 60.36242 | 5.19488 | 1417 ft | 142 kts | 175° |
| 2026-05-06 18:11 | 60.35260 | 5.19815 | 1205 ft | 144 kts | 175° |
| 2026-05-06 18:12 | 60.34288 | 5.20144 | 1038 ft | 143 kts | 174° |
| 2026-05-06 18:12 | 60.33314 | 5.20470 | 857 ft | 140 kts | 174° |
| 2026-05-06 18:12 | 60.32367 | 5.20795 | 616 ft | 136 kts | 172° |
| 2026-05-06 18:12 | 60.31449 | 5.21101 | 425 ft | 132 kts | 172° |
| 2026-05-06 18:13 | 60.30548 | 5.21407 | 251 ft | 131 kts | 171° |
| 2026-05-06 18:13 | 60.29675 | 5.21704 | 160 ft | 116 kts | 169° |
| 2026-05-06 18:13 | 60.29114 | 5.21893 | 153 ft | 49 kts | 170° |
| 2026-05-06 18:13 | 60.28912 | 5.22003 | 149 ft | 18 kts | 117° |
| 2026-05-06 18:14 | 60.28928 | 5.22242 | 151 ft | 17 kts | 81° |
| 2026-05-06 18:14 | 60.28932 | 5.22290 | 151 ft | 0 kts | 80° |
| 2026-05-06 18:15 | 60.28936 | 5.22369 | 151 ft | 9 kts | 89° |
| 2026-05-06 18:15 | 60.28907 | 5.22404 | 150 ft | 4 kts | 162° |
| 2026-05-06 18:15 | 60.28885 | 5.22430 | 150 ft | 3 kts | 127° |
| 2026-05-06 18:15 | 60.28887 | 5.22455 | 150 ft | 1 kts | 67° |
| 2026-05-06 18:16 | 60.28891 | 5.22471 | 150 ft | 4 kts | 64° |
| 2026-05-06 18:16 | 60.28893 | 5.22520 | 150 ft | 3 kts | 96° |
| 2026-05-06 18:16 | 60.28891 | 5.22537 | 150 ft | 0 kts | 101° |